sensor_id;sensor_type;location;lat;lon;timestamp;temperature;humidity
20070;DHT22;10195;50.868;4.382;2023-03-01T00:02:01;1.90;99.90
20070;DHT22;10195;50.868;4.382;2023-03-01T00:04:27;1.90;99.90
20070;DHT22;10195;50.868;4.382;2023-03-01T00:06:53;2.00;99.90
20070;DHT22;10195;50.868;4.382;2023-03-01T00:09:19;1.90;99.90
20070;DHT22;10195;50.868;4.382;2023-03-01T00:11:45;1.90;99.90
20070;DHT22;10195;50.868;4.382;2023-03-01T00:14:11;1.90;99.90
20070;DHT22;10195;50.868;4.382;2023-03-01T00:16:40;1.80;99.90
20070;DHT22;10195;50.868;4.382;2023-03-01T00:19:12;1.80;99.90
20070;DHT22;10195;50.868;4.382;2023-03-01T00:21:38;1.80;99.90
20070;DHT22;10195;50.868;4.382;2023-03-01T00:24:04;1.80;99.90
20070;DHT22;10195;50.868;4.382;2023-03-01T00:26:30;1.80;99.90
20070;DHT22;10195;50.868;4.382;2023-03-01T00:28:57;1.80;99.90
20070;DHT22;10195;50.868;4.382;2023-03-01T00:31:25;1.80;99.90
20070;DHT22;10195;50.868;4.382;2023-03-01T00:33:53;1.80;99.90
20070;DHT22;10195;50.868;4.382;2023-03-01T00:36:24;1.90;99.90
20070;DHT22;10195;50.868;4.382;2023-03-01T00:38:50;1.80;99.90
20070;DHT22;10195;50.868;4.382;2023-03-01T00:41:17;2.00;99.90
20070;DHT22;10195;50.868;4.382;2023-03-01T00:43:44;1.90;99.90
20070;DHT22;10195;50.868;4.382;2023-03-01T00:46:13;1.90;99.90
20070;DHT22;10195;50.868;4.382;2023-03-01T00:48:39;2.00;99.90
20070;DHT22;10195;50.868;4.382;2023-03-01T00:51:12;1.80;99.90
20070;DHT22;10195;50.868;4.382;2023-03-01T00:53:39;1.80;99.90
20070;DHT22;10195;50.868;4.382;2023-03-01T00:56:06;1.80;99.90
20070;DHT22;10195;50.868;4.382;2023-03-01T00:58:34;1.80;99.90
20070;DHT22;10195;50.868;4.382;2023-03-01T01:00:59;1.80;99.90
20070;DHT22;10195;50.868;4.382;2023-03-01T01:03:25;1.70;99.90
20070;DHT22;10195;50.868;4.382;2023-03-01T01:05:52;1.70;99.90
20070;DHT22;10195;50.868;4.382;2023-03-01T01:08:19;1.70;99.90
20070;DHT22;10195;50.868;4.382;2023-03-01T01:10:46;1.70;99.90
20070;DHT22;10195;50.868;4.382;2023-03-01T01:13:12;1.70;99.90
20070;DHT22;10195;50.868;4.382;2023-03-01T01:15:38;1.70;99.90
20070;DHT22;10195;50.868;4.382;2023-03-01T01:18:03;1.60;99.90
20070;DHT22;10195;50.868;4.382;2023-03-01T01:20:29;1.70;99.90
20070;DHT22;10195;50.868;4.382;2023-03-01T01:22:55;1.60;99.90
20070;DHT22;10195;50.868;4.382;2023-03-01T01:25:21;1.60;99.90
20070;DHT22;10195;50.868;4.382;2023-03-01T01:27:47;1.50;99.90
20070;DHT22;10195;50.868;4.382;2023-03-01T01:30:12;1.60;99.90
20070;DHT22;10195;50.868;4.382;2023-03-01T01:32:38;1.50;99.90
20070;DHT22;10195;50.868;4.382;2023-03-01T01:35:04;1.40;99.90
20070;DHT22;10195;50.868;4.382;2023-03-01T01:37:30;1.40;99.90
20070;DHT22;10195;50.868;4.382;2023-03-01T01:40:02;1.40;99.90
20070;DHT22;10195;50.868;4.382;2023-03-01T01:42:32;1.20;99.90
20070;DHT22;10195;50.868;4.382;2023-03-01T01:45:27;1.20;99.90
20070;DHT22;10195;50.868;4.382;2023-03-01T01:47:55;1.20;99.90
20070;DHT22;10195;50.868;4.382;2023-03-01T01:50:23;1.30;99.90
20070;DHT22;10195;50.868;4.382;2023-03-01T01:52:50;1.30;99.90
20070;DHT22;10195;50.868;4.382;2023-03-01T01:55:21;1.30;99.90
20070;DHT22;10195;50.868;4.382;2023-03-01T01:57:52;1.20;99.90
20070;DHT22;10195;50.868;4.382;2023-03-01T02:00:25;1.30;99.90
20070;DHT22;10195;50.868;4.382;2023-03-01T02:03:10;1.20;99.90
20070;DHT22;10195;50.868;4.382;2023-03-01T02:05:57;1.10;99.90
20070;DHT22;10195;50.868;4.382;2023-03-01T02:08:28;1.10;99.90
20070;DHT22;10195;50.868;4.382;2023-03-01T02:10:57;1.10;99.90
20070;DHT22;10195;50.868;4.382;2023-03-01T02:13:25;1.10;99.90
20070;DHT22;10195;50.868;4.382;2023-03-01T02:15:51;1.00;99.90
20070;DHT22;10195;50.868;4.382;2023-03-01T02:18:18;1.00;99.90
20070;DHT22;10195;50.868;4.382;2023-03-01T02:23:17;0.90;99.90
20070;DHT22;10195;50.868;4.382;2023-03-01T02:28:42;0.90;99.90
20070;DHT22;10195;50.868;4.382;2023-03-01T02:31:09;1.00;99.90
20070;DHT22;10195;50.868;4.382;2023-03-01T02:33:55;1.10;99.90
20070;DHT22;10195;50.868;4.382;2023-03-01T02:36:37;1.10;99.90
20070;DHT22;10195;50.868;4.382;2023-03-01T02:39:08;1.10;99.90
20070;DHT22;10195;50.868;4.382;2023-03-01T02:41:42;1.10;99.90
20070;DHT22;10195;50.868;4.382;2023-03-01T02:44:08;1.10;99.90
20070;DHT22;10195;50.868;4.382;2023-03-01T02:46:42;1.00;99.90
20070;DHT22;10195;50.868;4.382;2023-03-01T02:49:27;1.10;99.90
20070;DHT22;10195;50.868;4.382;2023-03-01T02:57:12;1.00;99.90
20070;DHT22;10195;50.868;4.382;2023-03-01T02:59:39;0.90;99.90
20070;DHT22;10195;50.868;4.382;2023-03-01T03:02:22;0.90;99.90
20070;DHT22;10195;50.868;4.382;2023-03-01T03:05:06;0.80;99.90
20070;DHT22;10195;50.868;4.382;2023-03-01T03:07:35;0.80;99.90
20070;DHT22;10195;50.868;4.382;2023-03-01T03:10:01;0.80;99.90
20070;DHT22;10195;50.868;4.382;2023-03-01T03:12:27;0.90;99.90
20070;DHT22;10195;50.868;4.382;2023-03-01T03:14:53;0.80;99.90
20070;DHT22;10195;50.868;4.382;2023-03-01T03:17:19;0.90;99.90
20070;DHT22;10195;50.868;4.382;2023-03-01T03:19:44;0.90;99.90
20070;DHT22;10195;50.868;4.382;2023-03-01T03:22:11;0.90;99.90
20070;DHT22;10195;50.868;4.382;2023-03-01T03:24:37;0.90;99.90
20070;DHT22;10195;50.868;4.382;2023-03-01T03:27:04;0.80;99.90
20070;DHT22;10195;50.868;4.382;2023-03-01T03:29:30;0.70;99.90
20070;DHT22;10195;50.868;4.382;2023-03-01T03:31:56;0.80;99.90
20070;DHT22;10195;50.868;4.382;2023-03-01T03:34:22;0.80;99.90
20070;DHT22;10195;50.868;4.382;2023-03-01T03:36:53;0.60;99.90
20070;DHT22;10195;50.868;4.382;2023-03-01T03:39:25;0.50;99.90
20070;DHT22;10195;50.868;4.382;2023-03-01T03:41:52;0.50;99.90
20070;DHT22;10195;50.868;4.382;2023-03-01T03:44:19;0.60;99.90
20070;DHT22;10195;50.868;4.382;2023-03-01T03:46:44;0.50;99.90
20070;DHT22;10195;50.868;4.382;2023-03-01T03:49:10;0.60;99.90
20070;DHT22;10195;50.868;4.382;2023-03-01T03:51:35;0.40;99.90
20070;DHT22;10195;50.868;4.382;2023-03-01T03:54:01;0.40;99.90
20070;DHT22;10195;50.868;4.382;2023-03-01T03:56:27;0.40;99.90
20070;DHT22;10195;50.868;4.382;2023-03-01T03:58:52;0.40;99.90
20070;DHT22;10195;50.868;4.382;2023-03-01T04:01:19;0.40;99.90
20070;DHT22;10195;50.868;4.382;2023-03-01T04:03:45;0.40;99.90
20070;DHT22;10195;50.868;4.382;2023-03-01T04:06:13;0.30;99.90
20070;DHT22;10195;50.868;4.382;2023-03-01T04:08:39;0.30;99.90
20070;DHT22;10195;50.868;4.382;2023-03-01T04:11:05;0.20;99.90
20070;DHT22;10195;50.868;4.382;2023-03-01T04:13:51;0.20;99.90
20070;DHT22;10195;50.868;4.382;2023-03-01T04:16:17;0.10;99.90
20070;DHT22;10195;50.868;4.382;2023-03-01T04:18:43;0.10;99.90
20070;DHT22;10195;50.868;4.382;2023-03-01T04:21:09;0.10;99.90
20070;DHT22;10195;50.868;4.382;2023-03-01T04:23:36;0.10;99.90
20070;DHT22;10195;50.868;4.382;2023-03-01T04:26:01;0.00;99.90
20070;DHT22;10195;50.868;4.382;2023-03-01T04:28:32;0.10;99.90
20070;DHT22;10195;50.868;4.382;2023-03-01T04:31:03;0.00;99.90
20070;DHT22;10195;50.868;4.382;2023-03-01T04:33:42;0.00;99.90
20070;DHT22;10195;50.868;4.382;2023-03-01T04:36:09;0.00;99.90
20070;DHT22;10195;50.868;4.382;2023-03-01T04:38:36;0.00;99.90
20070;DHT22;10195;50.868;4.382;2023-03-01T04:41:10;0.00;99.90
20070;DHT22;10195;50.868;4.382;2023-03-01T04:43:36;0.00;99.90
20070;DHT22;10195;50.868;4.382;2023-03-01T04:46:11;-0.10;99.90
20070;DHT22;10195;50.868;4.382;2023-03-01T04:48:38;-0.10;99.90
20070;DHT22;10195;50.868;4.382;2023-03-01T04:51:05;-0.20;99.90
20070;DHT22;10195;50.868;4.382;2023-03-01T04:53:32;-0.20;99.90
20070;DHT22;10195;50.868;4.382;2023-03-01T04:55:58;-0.30;99.90
20070;DHT22;10195;50.868;4.382;2023-03-01T04:58:26;-0.20;99.90
20070;DHT22;10195;50.868;4.382;2023-03-01T05:00:52;-0.10;99.90
20070;DHT22;10195;50.868;4.382;2023-03-01T05:03:19;-0.20;99.90
20070;DHT22;10195;50.868;4.382;2023-03-01T05:05:46;-0.20;99.90
20070;DHT22;10195;50.868;4.382;2023-03-01T05:08:13;-0.20;99.90
20070;DHT22;10195;50.868;4.382;2023-03-01T05:10:45;-0.30;99.90
20070;DHT22;10195;50.868;4.382;2023-03-01T05:13:12;-0.30;99.90
20070;DHT22;10195;50.868;4.382;2023-03-01T05:15:39;-0.30;99.90
20070;DHT22;10195;50.868;4.382;2023-03-01T05:18:05;-0.30;99.90
20070;DHT22;10195;50.868;4.382;2023-03-01T05:20:37;-0.30;99.90
20070;DHT22;10195;50.868;4.382;2023-03-01T05:23:03;-0.30;99.90
20070;DHT22;10195;50.868;4.382;2023-03-01T05:25:32;-0.30;99.90
20070;DHT22;10195;50.868;4.382;2023-03-01T05:28:00;-0.20;99.90
20070;DHT22;10195;50.868;4.382;2023-03-01T05:30:33;-0.30;99.90
20070;DHT22;10195;50.868;4.382;2023-03-01T05:32:59;-0.30;99.90
20070;DHT22;10195;50.868;4.382;2023-03-01T05:35:25;-0.40;99.90
20070;DHT22;10195;50.868;4.382;2023-03-01T05:37:51;-0.40;99.90
20070;DHT22;10195;50.868;4.382;2023-03-01T05:40:20;-0.40;99.90
20070;DHT22;10195;50.868;4.382;2023-03-01T05:42:48;-0.40;99.90
20070;DHT22;10195;50.868;4.382;2023-03-01T05:45:14;-0.30;99.90
20070;DHT22;10195;50.868;4.382;2023-03-01T05:47:42;-0.30;99.90
20070;DHT22;10195;50.868;4.382;2023-03-01T05:50:21;-0.30;99.90
20070;DHT22;10195;50.868;4.382;2023-03-01T05:52:56;-0.30;99.90
20070;DHT22;10195;50.868;4.382;2023-03-01T05:55:22;-0.30;99.90
20070;DHT22;10195;50.868;4.382;2023-03-01T05:57:48;-0.30;99.90
20070;DHT22;10195;50.868;4.382;2023-03-01T06:00:16;-0.30;99.90
20070;DHT22;10195;50.868;4.382;2023-03-01T06:02:42;-0.30;99.90
20070;DHT22;10195;50.868;4.382;2023-03-01T06:05:09;-0.30;99.90
20070;DHT22;10195;50.868;4.382;2023-03-01T06:07:35;-0.40;99.90
20070;DHT22;10195;50.868;4.382;2023-03-01T06:10:02;-0.40;99.90
20070;DHT22;10195;50.868;4.382;2023-03-01T06:12:33;-0.50;99.90
20070;DHT22;10195;50.868;4.382;2023-03-01T06:14:59;-0.50;99.90
20070;DHT22;10195;50.868;4.382;2023-03-01T06:17:25;-0.50;99.90
20070;DHT22;10195;50.868;4.382;2023-03-01T06:19:50;-0.50;99.90
20070;DHT22;10195;50.868;4.382;2023-03-01T06:22:16;-0.40;99.90
20070;DHT22;10195;50.868;4.382;2023-03-01T06:24:42;-0.30;99.90
20070;DHT22;10195;50.868;4.382;2023-03-01T06:27:08;-0.40;99.90
20070;DHT22;10195;50.868;4.382;2023-03-01T06:29:33;-0.40;99.90
20070;DHT22;10195;50.868;4.382;2023-03-01T06:31:59;-0.40;99.90
20070;DHT22;10195;50.868;4.382;2023-03-01T06:34:25;-0.40;99.90
20070;DHT22;10195;50.868;4.382;2023-03-01T06:36:50;-0.40;99.90
20070;DHT22;10195;50.868;4.382;2023-03-01T06:39:16;-0.40;99.90
20070;DHT22;10195;50.868;4.382;2023-03-01T06:41:43;-0.30;99.90
20070;DHT22;10195;50.868;4.382;2023-03-01T06:44:09;-0.40;99.90
20070;DHT22;10195;50.868;4.382;2023-03-01T06:46:34;-0.50;99.90
20070;DHT22;10195;50.868;4.382;2023-03-01T06:49:00;-0.50;99.90
20070;DHT22;10195;50.868;4.382;2023-03-01T06:51:26;-0.40;99.90
20070;DHT22;10195;50.868;4.382;2023-03-01T06:53:51;-0.40;99.90
20070;DHT22;10195;50.868;4.382;2023-03-01T06:56:17;-0.30;99.90
20070;DHT22;10195;50.868;4.382;2023-03-01T06:58:42;-0.30;99.90
20070;DHT22;10195;50.868;4.382;2023-03-01T07:01:09;-0.20;99.90
20070;DHT22;10195;50.868;4.382;2023-03-01T07:03:35;0.00;99.90
20070;DHT22;10195;50.868;4.382;2023-03-01T07:06:01;0.00;99.90
20070;DHT22;10195;50.868;4.382;2023-03-01T07:08:26;0.10;99.90
20070;DHT22;10195;50.868;4.382;2023-03-01T07:10:58;0.10;99.90
20070;DHT22;10195;50.868;4.382;2023-03-01T07:13:24;-0.10;99.90
20070;DHT22;10195;50.868;4.382;2023-03-01T07:15:50;-0.20;99.90
20070;DHT22;10195;50.868;4.382;2023-03-01T07:18:16;-0.30;99.90
20070;DHT22;10195;50.868;4.382;2023-03-01T07:20:41;-0.40;99.90
20070;DHT22;10195;50.868;4.382;2023-03-01T07:23:07;-0.30;99.90
20070;DHT22;10195;50.868;4.382;2023-03-01T07:25:33;-0.30;99.90
20070;DHT22;10195;50.868;4.382;2023-03-01T07:27:59;-0.20;99.90
20070;DHT22;10195;50.868;4.382;2023-03-01T07:30:25;-0.10;99.90
20070;DHT22;10195;50.868;4.382;2023-03-01T07:32:55;0.10;99.90
20070;DHT22;10195;50.868;4.382;2023-03-01T07:35:22;0.20;99.90
20070;DHT22;10195;50.868;4.382;2023-03-01T07:37:48;0.40;99.90
20070;DHT22;10195;50.868;4.382;2023-03-01T07:40:14;0.50;99.90
20070;DHT22;10195;50.868;4.382;2023-03-01T07:42:39;0.60;99.90
20070;DHT22;10195;50.868;4.382;2023-03-01T07:45:05;1.00;99.90
20070;DHT22;10195;50.868;4.382;2023-03-01T07:47:31;1.40;99.90
20070;DHT22;10195;50.868;4.382;2023-03-01T07:49:57;2.30;99.90
20070;DHT22;10195;50.868;4.382;2023-03-01T07:52:23;3.20;99.90
20070;DHT22;10195;50.868;4.382;2023-03-01T07:54:49;4.00;99.90
20070;DHT22;10195;50.868;4.382;2023-03-01T07:57:14;4.80;99.90
20070;DHT22;10195;50.868;4.382;2023-03-01T07:59:40;4.60;99.90
20070;DHT22;10195;50.868;4.382;2023-03-01T08:02:07;4.90;99.90
20070;DHT22;10195;50.868;4.382;2023-03-01T08:04:33;4.40;99.90
20070;DHT22;10195;50.868;4.382;2023-03-01T08:06:58;4.20;99.90
20070;DHT22;10195;50.868;4.382;2023-03-01T08:09:24;4.10;99.90
20070;DHT22;10195;50.868;4.382;2023-03-01T08:11:50;4.40;99.90
20070;DHT22;10195;50.868;4.382;2023-03-01T08:14:16;4.20;99.90
20070;DHT22;10195;50.868;4.382;2023-03-01T08:16:42;4.20;99.90
20070;DHT22;10195;50.868;4.382;2023-03-01T08:19:09;4.50;99.90
20070;DHT22;10195;50.868;4.382;2023-03-01T08:21:35;5.00;99.90
20070;DHT22;10195;50.868;4.382;2023-03-01T08:24:05;5.00;99.90
20070;DHT22;10195;50.868;4.382;2023-03-01T08:26:32;4.90;99.90
20070;DHT22;10195;50.868;4.382;2023-03-01T08:28:59;4.80;99.90
20070;DHT22;10195;50.868;4.382;2023-03-01T08:31:34;5.60;99.90
20070;DHT22;10195;50.868;4.382;2023-03-01T08:34:06;6.20;99.90
20070;DHT22;10195;50.868;4.382;2023-03-01T08:36:39;7.30;99.90
20070;DHT22;10195;50.868;4.382;2023-03-01T08:39:07;7.10;99.90
20070;DHT22;10195;50.868;4.382;2023-03-01T08:41:33;6.40;99.90
20070;DHT22;10195;50.868;4.382;2023-03-01T08:43:58;6.20;99.90
20070;DHT22;10195;50.868;4.382;2023-03-01T08:46:36;6.40;99.90
20070;DHT22;10195;50.868;4.382;2023-03-01T08:49:06;6.00;99.90
20070;DHT22;10195;50.868;4.382;2023-03-01T08:51:33;5.80;99.90
20070;DHT22;10195;50.868;4.382;2023-03-01T08:54:06;6.10;99.90
20070;DHT22;10195;50.868;4.382;2023-03-01T08:56:33;6.30;99.90
20070;DHT22;10195;50.868;4.382;2023-03-01T08:58:59;6.50;99.90
20070;DHT22;10195;50.868;4.382;2023-03-01T09:01:25;6.30;99.90
20070;DHT22;10195;50.868;4.382;2023-03-01T09:03:50;6.00;99.90
20070;DHT22;10195;50.868;4.382;2023-03-01T09:06:16;6.30;99.90
20070;DHT22;10195;50.868;4.382;2023-03-01T09:08:46;6.60;99.90
20070;DHT22;10195;50.868;4.382;2023-03-01T09:11:15;6.80;99.90
20070;DHT22;10195;50.868;4.382;2023-03-01T09:13:42;6.60;99.90
20070;DHT22;10195;50.868;4.382;2023-03-01T09:16:08;6.70;99.90
20070;DHT22;10195;50.868;4.382;2023-03-01T09:18:34;6.30;99.90
20070;DHT22;10195;50.868;4.382;2023-03-01T09:21:03;6.30;99.90
20070;DHT22;10195;50.868;4.382;2023-03-01T09:23:33;6.10;99.90
20070;DHT22;10195;50.868;4.382;2023-03-01T09:25:59;5.90;99.90
20070;DHT22;10195;50.868;4.382;2023-03-01T09:28:25;6.30;99.90
20070;DHT22;10195;50.868;4.382;2023-03-01T09:30:50;6.50;99.90
20070;DHT22;10195;50.868;4.382;2023-03-01T09:33:16;6.20;99.90
20070;DHT22;10195;50.868;4.382;2023-03-01T09:35:42;6.50;99.90
20070;DHT22;10195;50.868;4.382;2023-03-01T09:38:13;6.80;99.90
20070;DHT22;10195;50.868;4.382;2023-03-01T09:40:43;6.70;99.90
20070;DHT22;10195;50.868;4.382;2023-03-01T09:43:21;7.00;99.90
20070;DHT22;10195;50.868;4.382;2023-03-01T09:45:50;6.80;99.90
20070;DHT22;10195;50.868;4.382;2023-03-01T09:48:21;7.00;99.90
20070;DHT22;10195;50.868;4.382;2023-03-01T09:50:49;7.70;99.90
20070;DHT22;10195;50.868;4.382;2023-03-01T09:53:24;7.90;99.90
20070;DHT22;10195;50.868;4.382;2023-03-01T09:56:02;8.30;99.90
20070;DHT22;10195;50.868;4.382;2023-03-01T10:01:02;7.20;99.90
20070;DHT22;10195;50.868;4.382;2023-03-01T10:03:41;6.70;99.90
20070;DHT22;10195;50.868;4.382;2023-03-01T10:06:17;6.90;99.90
20070;DHT22;10195;50.868;4.382;2023-03-01T10:08:54;6.50;99.90
20070;DHT22;10195;50.868;4.382;2023-03-01T10:11:28;6.50;99.90
20070;DHT22;10195;50.868;4.382;2023-03-01T10:14:05;6.50;99.90
20070;DHT22;10195;50.868;4.382;2023-03-01T10:17:33;6.00;99.90
20070;DHT22;10195;50.868;4.382;2023-03-01T10:19:38;5.70;99.90
20070;DHT22;10195;50.868;4.382;2023-03-01T10:22:16;6.30;99.90
20070;DHT22;10195;50.868;4.382;2023-03-01T10:24:44;6.50;99.90
20070;DHT22;10195;50.868;4.382;2023-03-01T10:30:13;7.30;99.90
20070;DHT22;10195;50.868;4.382;2023-03-01T10:32:45;7.50;99.90
20070;DHT22;10195;50.868;4.382;2023-03-01T10:35:18;7.80;99.90
20070;DHT22;10195;50.868;4.382;2023-03-01T10:38:04;7.50;99.90
20070;DHT22;10195;50.868;4.382;2023-03-01T10:40:32;8.30;99.90
20070;DHT22;10195;50.868;4.382;2023-03-01T10:43:00;8.30;99.90
20070;DHT22;10195;50.868;4.382;2023-03-01T10:50:32;9.40;99.90
20070;DHT22;10195;50.868;4.382;2023-03-01T10:53:02;8.90;99.90
20070;DHT22;10195;50.868;4.382;2023-03-01T10:55:37;8.40;99.90
20070;DHT22;10195;50.868;4.382;2023-03-01T10:58:14;7.70;99.90
20070;DHT22;10195;50.868;4.382;2023-03-01T11:00:50;7.70;99.90
20070;DHT22;10195;50.868;4.382;2023-03-01T11:03:28;8.40;99.90
20070;DHT22;10195;50.868;4.382;2023-03-01T11:05:57;8.40;99.90
20070;DHT22;10195;50.868;4.382;2023-03-01T11:08:40;8.60;99.90
20070;DHT22;10195;50.868;4.382;2023-03-01T11:16:35;7.50;99.90
20070;DHT22;10195;50.868;4.382;2023-03-01T11:19:21;7.60;99.90
20070;DHT22;10195;50.868;4.382;2023-03-01T11:24:16;7.60;99.90
20070;DHT22;10195;50.868;4.382;2023-03-01T11:26:46;7.20;99.90
20070;DHT22;10195;50.868;4.382;2023-03-01T11:31:52;7.50;99.90
20070;DHT22;10195;50.868;4.382;2023-03-01T11:34:45;7.20;99.90
20070;DHT22;10195;50.868;4.382;2023-03-01T11:37:28;7.40;99.90
20070;DHT22;10195;50.868;4.382;2023-03-01T11:40:10;7.10;99.90
20070;DHT22;10195;50.868;4.382;2023-03-01T11:43:01;6.70;99.90
20070;DHT22;10195;50.868;4.382;2023-03-01T11:48:45;7.20;99.90
20070;DHT22;10195;50.868;4.382;2023-03-01T11:51:47;7.30;99.90
20070;DHT22;10195;50.868;4.382;2023-03-01T11:57:26;7.30;99.90
20070;DHT22;10195;50.868;4.382;2023-03-01T12:10:44;7.60;99.90
20070;DHT22;10195;50.868;4.382;2023-03-01T12:13:35;7.30;99.90
20070;DHT22;10195;50.868;4.382;2023-03-01T12:34:08;7.30;99.90
20070;DHT22;10195;50.868;4.382;2023-03-01T12:36:37;7.60;99.90
20070;DHT22;10195;50.868;4.382;2023-03-01T12:47:58;6.90;99.90
20070;DHT22;10195;50.868;4.382;2023-03-01T12:50:40;7.10;99.90
20070;DHT22;10195;50.868;4.382;2023-03-01T12:53:23;7.30;99.90
20070;DHT22;10195;50.868;4.382;2023-03-01T12:55:52;7.50;99.90
20070;DHT22;10195;50.868;4.382;2023-03-01T12:58:51;7.10;99.90
20070;DHT22;10195;50.868;4.382;2023-03-01T13:09:30;7.10;99.90
20070;DHT22;10195;50.868;4.382;2023-03-01T13:11:59;6.90;99.90
20070;DHT22;10195;50.868;4.382;2023-03-01T13:16:54;6.90;99.90
20070;DHT22;10195;50.868;4.382;2023-03-01T13:19:21;7.20;99.90
20070;DHT22;10195;50.868;4.382;2023-03-01T13:21:49;7.20;99.90
20070;DHT22;10195;50.868;4.382;2023-03-01T13:29:48;7.00;99.90
20070;DHT22;10195;50.868;4.382;2023-03-01T13:32:34;6.80;99.90
20070;DHT22;10195;50.868;4.382;2023-03-01T13:37:52;6.90;99.90
20070;DHT22;10195;50.868;4.382;2023-03-01T13:42:49;7.00;99.90
20070;DHT22;10195;50.868;4.382;2023-03-01T13:45:39;7.40;99.90
20070;DHT22;10195;50.868;4.382;2023-03-01T13:48:27;7.90;99.90
20070;DHT22;10195;50.868;4.382;2023-03-01T13:51:25;8.40;99.90
20070;DHT22;10195;50.868;4.382;2023-03-01T13:53:53;9.10;99.90
20070;DHT22;10195;50.868;4.382;2023-03-01T13:56:27;9.30;99.90
20070;DHT22;10195;50.868;4.382;2023-03-01T13:59:01;8.80;99.90
20070;DHT22;10195;50.868;4.382;2023-03-01T14:01:35;8.50;99.90
20070;DHT22;10195;50.868;4.382;2023-03-01T14:04:02;8.10;99.90
20070;DHT22;10195;50.868;4.382;2023-03-01T14:06:30;7.60;99.90
20070;DHT22;10195;50.868;4.382;2023-03-01T14:09:10;7.40;99.90
20070;DHT22;10195;50.868;4.382;2023-03-01T14:19:28;7.10;99.90
20070;DHT22;10195;50.868;4.382;2023-03-01T14:24:31;7.20;99.90
20070;DHT22;10195;50.868;4.382;2023-03-01T14:27:01;7.40;99.90
20070;DHT22;10195;50.868;4.382;2023-03-01T14:29:38;7.30;99.90
20070;DHT22;10195;50.868;4.382;2023-03-01T14:32:21;7.40;99.90
20070;DHT22;10195;50.868;4.382;2023-03-01T14:34:49;7.30;99.90
20070;DHT22;10195;50.868;4.382;2023-03-01T14:37:31;7.40;99.90
20070;DHT22;10195;50.868;4.382;2023-03-01T14:39:59;7.40;99.90
20070;DHT22;10195;50.868;4.382;2023-03-01T14:42:28;7.50;99.90
20070;DHT22;10195;50.868;4.382;2023-03-01T14:44:55;7.40;99.90
20070;DHT22;10195;50.868;4.382;2023-03-01T14:47:32;7.50;99.90
20070;DHT22;10195;50.868;4.382;2023-03-01T14:50:07;7.60;99.90
20070;DHT22;10195;50.868;4.382;2023-03-01T14:52:39;7.30;99.90
20070;DHT22;10195;50.868;4.382;2023-03-01T14:55:16;7.30;99.90
20070;DHT22;10195;50.868;4.382;2023-03-01T14:57:44;7.40;99.90
20070;DHT22;10195;50.868;4.382;2023-03-01T15:00:20;7.60;99.90
20070;DHT22;10195;50.868;4.382;2023-03-01T15:02:48;7.60;99.90
20070;DHT22;10195;50.868;4.382;2023-03-01T15:05:16;7.50;99.90
20070;DHT22;10195;50.868;4.382;2023-03-01T15:07:45;7.50;99.90
20070;DHT22;10195;50.868;4.382;2023-03-01T15:10:22;7.40;99.90
20070;DHT22;10195;50.868;4.382;2023-03-01T15:12:49;7.30;99.90
20070;DHT22;10195;50.868;4.382;2023-03-01T15:15:35;7.30;99.90
20070;DHT22;10195;50.868;4.382;2023-03-01T15:18:05;7.30;99.90
20070;DHT22;10195;50.868;4.382;2023-03-01T15:20:33;7.30;99.90
20070;DHT22;10195;50.868;4.382;2023-03-01T15:23:01;7.30;99.90
20070;DHT22;10195;50.868;4.382;2023-03-01T15:25:29;7.30;99.90
20070;DHT22;10195;50.868;4.382;2023-03-01T15:27:58;7.20;99.90
20070;DHT22;10195;50.868;4.382;2023-03-01T15:30:27;7.30;99.90
20070;DHT22;10195;50.868;4.382;2023-03-01T15:35:49;7.30;99.90
20070;DHT22;10195;50.868;4.382;2023-03-01T15:38:35;7.30;99.90
20070;DHT22;10195;50.868;4.382;2023-03-01T15:41:06;7.20;99.90
20070;DHT22;10195;50.868;4.382;2023-03-01T15:43:46;7.20;99.90
20070;DHT22;10195;50.868;4.382;2023-03-01T15:46:18;7.20;99.90
20070;DHT22;10195;50.868;4.382;2023-03-01T15:48:46;7.20;99.90
20070;DHT22;10195;50.868;4.382;2023-03-01T15:51:13;7.20;99.90
20070;DHT22;10195;50.868;4.382;2023-03-01T15:53:40;7.30;99.90
20070;DHT22;10195;50.868;4.382;2023-03-01T15:56:06;7.20;99.90
20070;DHT22;10195;50.868;4.382;2023-03-01T15:58:32;7.30;99.90
20070;DHT22;10195;50.868;4.382;2023-03-01T16:00:58;7.30;99.90
20070;DHT22;10195;50.868;4.382;2023-03-01T16:03:24;7.20;99.90
20070;DHT22;10195;50.868;4.382;2023-03-01T16:05:50;7.20;99.90
20070;DHT22;10195;50.868;4.382;2023-03-01T16:08:17;7.20;99.90
20070;DHT22;10195;50.868;4.382;2023-03-01T16:10:43;7.20;99.90
20070;DHT22;10195;50.868;4.382;2023-03-01T16:13:12;7.30;99.90
20070;DHT22;10195;50.868;4.382;2023-03-01T16:15:38;7.30;99.90
20070;DHT22;10195;50.868;4.382;2023-03-01T16:18:05;7.20;99.90
20070;DHT22;10195;50.868;4.382;2023-03-01T16:20:32;7.10;99.90
20070;DHT22;10195;50.868;4.382;2023-03-01T16:22:59;6.90;99.90
20070;DHT22;10195;50.868;4.382;2023-03-01T16:25:28;6.90;99.90
20070;DHT22;10195;50.868;4.382;2023-03-01T16:27:54;6.90;99.90
20070;DHT22;10195;50.868;4.382;2023-03-01T16:30:21;6.90;99.90
20070;DHT22;10195;50.868;4.382;2023-03-01T16:32:49;6.90;99.90
20070;DHT22;10195;50.868;4.382;2023-03-01T16:35:18;6.80;99.90
20070;DHT22;10195;50.868;4.382;2023-03-01T16:37:45;6.90;99.90
20070;DHT22;10195;50.868;4.382;2023-03-01T16:40:22;6.80;99.90
20070;DHT22;10195;50.868;4.382;2023-03-01T16:42:49;6.90;99.90
20070;DHT22;10195;50.868;4.382;2023-03-01T16:45:15;6.90;99.90
20070;DHT22;10195;50.868;4.382;2023-03-01T16:47:41;6.90;99.90
20070;DHT22;10195;50.868;4.382;2023-03-01T16:50:08;6.90;99.90
20070;DHT22;10195;50.868;4.382;2023-03-01T16:52:34;7.00;99.90
20070;DHT22;10195;50.868;4.382;2023-03-01T16:55:00;6.90;99.90
20070;DHT22;10195;50.868;4.382;2023-03-01T16:57:25;6.80;99.90
20070;DHT22;10195;50.868;4.382;2023-03-01T16:59:52;6.70;99.90
20070;DHT22;10195;50.868;4.382;2023-03-01T17:02:19;6.60;99.90
20070;DHT22;10195;50.868;4.382;2023-03-01T17:04:51;6.50;99.90
20070;DHT22;10195;50.868;4.382;2023-03-01T17:07:17;6.50;99.90
20070;DHT22;10195;50.868;4.382;2023-03-01T17:09:42;6.40;99.90
20070;DHT22;10195;50.868;4.382;2023-03-01T17:12:08;6.50;99.90
20070;DHT22;10195;50.868;4.382;2023-03-01T17:14:34;6.40;99.90
20070;DHT22;10195;50.868;4.382;2023-03-01T17:17:00;6.40;99.90
20070;DHT22;10195;50.868;4.382;2023-03-01T17:19:26;6.40;99.90
20070;DHT22;10195;50.868;4.382;2023-03-01T17:21:52;6.40;99.90
20070;DHT22;10195;50.868;4.382;2023-03-01T17:24:18;6.30;99.90
20070;DHT22;10195;50.868;4.382;2023-03-01T17:26:44;6.30;99.90
20070;DHT22;10195;50.868;4.382;2023-03-01T17:29:10;6.40;99.90
20070;DHT22;10195;50.868;4.382;2023-03-01T17:31:36;6.40;99.90
20070;DHT22;10195;50.868;4.382;2023-03-01T17:34:01;6.40;99.90
20070;DHT22;10195;50.868;4.382;2023-03-01T17:36:27;6.40;99.90
20070;DHT22;10195;50.868;4.382;2023-03-01T17:38:53;6.40;99.90
20070;DHT22;10195;50.868;4.382;2023-03-01T17:41:18;6.30;99.90
20070;DHT22;10195;50.868;4.382;2023-03-01T17:43:45;6.20;99.90
20070;DHT22;10195;50.868;4.382;2023-03-01T17:46:11;6.20;99.90
20070;DHT22;10195;50.868;4.382;2023-03-01T17:48:37;6.10;99.90